createdAt,value
2019-06-27T00:01:42.113Z,2.90
2019-06-27T00:04:12.598Z,3.20
2019-06-27T00:06:43.261Z,3.27
2019-06-27T00:09:13.858Z,3.15
2019-06-27T00:11:44.366Z,3.22
2019-06-27T00:14:14.768Z,3.10
2019-06-27T00:16:45.328Z,4.10
2019-06-27T00:19:15.897Z,3.55
2019-06-27T00:21:46.399Z,2.83
2019-06-27T00:24:16.846Z,2.90
2019-06-27T00:26:56.466Z,3.60
2019-06-27T00:29:19.512Z,3.60
2019-06-27T00:31:50.052Z,4.15
2019-06-27T00:34:20.552Z,3.30
2019-06-27T00:36:51.098Z,3.17
2019-06-27T00:39:21.592Z,3.67
2019-06-27T00:41:52.298Z,3.65
2019-06-27T00:44:22.763Z,2.80
2019-06-27T00:46:53.283Z,2.80
2019-06-27T00:49:23.797Z,2.90
2019-06-27T00:51:54.295Z,3.12
2019-06-27T00:54:24.803Z,3.33
2019-06-27T00:56:55.313Z,2.65
2019-06-27T00:59:25.872Z,2.72
2019-06-27T01:01:56.412Z,2.80
2019-06-27T01:04:26.874Z,2.75
2019-06-27T01:06:57.347Z,3.30
2019-06-27T01:09:27.886Z,3.37
2019-06-27T01:11:58.357Z,3.00
2019-06-27T01:14:28.833Z,3.40
2019-06-27T01:16:59.397Z,3.15
2019-06-27T01:19:29.910Z,3.70
2019-06-27T01:22:00.418Z,2.83
2019-06-27T01:24:30.893Z,3.20
2019-06-27T01:27:01.401Z,3.15
2019-06-27T01:29:31.994Z,3.85
2019-06-27T01:32:02.509Z,3.13
2019-06-27T01:34:33.004Z,3.87
2019-06-27T01:37:03.478Z,3.08
2019-06-27T01:39:34.005Z,2.83
2019-06-27T01:42:04.495Z,2.92
2019-06-27T01:44:43.889Z,2.80
2019-06-27T01:47:14.418Z,2.58
2019-06-27T01:49:44.903Z,3.50
2019-06-27T01:52:15.421Z,3.00
2019-06-27T01:54:45.849Z,3.10
2019-06-27T01:57:17.644Z,3.30
2019-06-27T01:59:48.208Z,3.42
2019-06-27T02:02:18.703Z,2.60
2019-06-27T02:04:49.248Z,2.70
2019-06-27T02:07:19.761Z,3.70
2019-06-27T02:09:50.319Z,2.98
2019-06-27T02:12:20.960Z,3.00
2019-06-27T02:14:51.505Z,3.20
2019-06-27T02:17:22.010Z,3.10
2019-06-27T02:19:52.545Z,2.25
2019-06-27T02:22:23.048Z,3.10
2019-06-27T02:24:53.533Z,3.25
2019-06-27T02:27:23.995Z,2.80
2019-06-27T02:29:54.526Z,2.60
2019-06-27T02:32:24.996Z,3.43
2019-06-27T02:34:55.493Z,3.45
2019-06-27T02:37:25.985Z,2.80
2019-06-27T02:39:56.481Z,2.40
2019-06-27T02:42:26.980Z,2.80
2019-06-27T02:44:57.541Z,3.10
2019-06-27T02:47:28.058Z,2.92
2019-06-27T02:49:58.565Z,2.98
2019-06-27T02:52:29.085Z,2.80
2019-06-27T02:54:59.516Z,2.62
2019-06-27T02:57:30.022Z,2.43
2019-06-27T03:00:00.556Z,3.40
2019-06-27T03:02:31.095Z,2.22
2019-06-27T03:05:01.573Z,2.90
2019-06-27T03:07:32.167Z,3.00
2019-06-27T03:10:02.763Z,2.70
2019-06-27T03:12:33.253Z,3.27
2019-06-27T03:15:03.797Z,3.30
2019-06-27T03:17:34.360Z,3.02
2019-06-27T03:20:06.285Z,3.10
2019-06-27T03:22:36.847Z,2.75
2019-06-27T03:25:07.644Z,3.17
2019-06-27T03:27:38.139Z,3.17
2019-06-27T03:30:09.173Z,2.80
2019-06-27T03:32:39.716Z,2.60
2019-06-27T03:35:10.236Z,3.37
2019-06-27T03:37:40.806Z,3.00
2019-06-27T03:40:12.218Z,2.40
2019-06-27T03:42:42.707Z,2.42
2019-06-27T03:45:15.768Z,2.60
2019-06-27T03:47:45.549Z,3.08
2019-06-27T03:50:17.037Z,2.80
2019-06-27T03:52:47.661Z,2.77
2019-06-27T03:55:18.205Z,2.50
2019-06-27T03:57:48.725Z,2.65
2019-06-27T04:00:29.733Z,3.00
2019-06-27T04:03:00.290Z,2.25
2019-06-27T04:05:30.842Z,2.80
2019-06-27T04:08:01.557Z,2.45
2019-06-27T04:10:30.835Z,2.42
2019-06-27T04:13:01.318Z,2.50
2019-06-27T04:15:31.874Z,2.40
2019-06-27T04:18:02.393Z,2.67
2019-06-27T04:20:32.944Z,3.17
2019-06-27T04:23:03.482Z,2.42
2019-06-27T04:25:34.018Z,2.40
2019-06-27T04:28:04.549Z,2.47
2019-06-27T04:30:35.141Z,2.47
2019-06-27T04:33:05.657Z,3.05
2019-06-27T04:35:36.167Z,3.00
2019-06-27T04:38:06.778Z,2.30
2019-06-27T04:40:37.414Z,2.50
2019-06-27T04:43:07.899Z,2.30
2019-06-27T04:45:38.427Z,2.92
2019-06-27T04:48:08.953Z,2.90
2019-06-27T04:50:39.485Z,2.20
2019-06-27T04:53:10.053Z,2.83
2019-06-27T04:55:40.587Z,2.70
2019-06-27T04:58:11.094Z,2.67
2019-06-27T05:00:41.659Z,2.40
2019-06-27T05:03:12.158Z,3.08
2019-06-27T05:05:42.653Z,2.92
2019-06-27T05:08:14.943Z,2.72
2019-06-27T05:10:45.693Z,3.10
2019-06-27T05:13:17.174Z,2.77
2019-06-27T05:15:47.687Z,3.00
2019-06-27T05:18:18.213Z,3.45
2019-06-27T05:20:50.795Z,3.30
2019-06-27T05:23:21.389Z,3.40
2019-06-27T05:25:52.887Z,3.42
2019-06-27T05:28:24.515Z,3.37
2019-06-27T05:30:55.110Z,2.90
2019-06-27T05:33:25.637Z,3.42
2019-06-27T05:35:56.155Z,2.90
2019-06-27T05:38:26.691Z,3.05
2019-06-27T05:40:57.194Z,2.40
2019-06-27T05:43:27.688Z,3.27
2019-06-27T05:45:58.311Z,2.95
2019-06-27T05:48:28.811Z,2.67
2019-06-27T05:50:59.404Z,3.12
2019-06-27T05:53:29.970Z,3.00
2019-06-27T05:56:00.479Z,2.90
2019-06-27T05:58:30.978Z,3.25
2019-06-27T06:01:01.650Z,2.70
2019-06-27T06:03:32.236Z,2.72
2019-06-27T06:06:02.759Z,3.10
2019-06-27T06:08:33.229Z,3.00
2019-06-27T06:11:03.752Z,2.90
2019-06-27T06:13:34.271Z,2.60
2019-06-27T06:16:04.805Z,3.17
2019-06-27T06:18:35.415Z,3.50
2019-06-27T06:21:06.048Z,3.75
2019-06-27T06:23:36.528Z,2.80
2019-06-27T06:26:07.017Z,2.85
2019-06-27T06:28:37.631Z,3.75
2019-06-27T06:31:08.178Z,3.35
2019-06-27T06:33:38.685Z,2.90
2019-06-27T06:36:09.240Z,2.90
2019-06-27T06:38:39.777Z,2.80
2019-06-27T06:41:10.273Z,3.58
2019-06-27T06:43:40.795Z,2.98
2019-06-27T06:46:11.338Z,3.45
2019-06-27T06:48:41.835Z,2.75
2019-06-27T06:51:12.443Z,2.72
2019-06-27T06:53:42.953Z,3.58
2019-06-27T06:56:13.480Z,2.62
2019-06-27T06:58:44.028Z,2.70
2019-06-27T07:01:14.537Z,3.17
2019-06-27T07:03:45.139Z,2.90
2019-06-27T07:06:15.642Z,3.17
2019-06-27T07:08:46.300Z,3.30
2019-06-27T07:11:16.867Z,2.98
2019-06-27T07:13:47.369Z,3.17
2019-06-27T07:16:17.881Z,3.40
2019-06-27T07:18:48.406Z,2.85
2019-06-27T07:21:18.945Z,2.95
2019-06-27T07:23:49.691Z,2.90
2019-06-27T07:26:22.417Z,2.45
2019-06-27T07:28:52.371Z,1.85
2019-06-27T07:31:22.982Z,2.10
2019-06-27T07:33:53.487Z,2.00
2019-06-27T07:36:23.900Z,1.90
2019-06-27T07:38:54.420Z,2.02
2019-06-27T07:41:24.939Z,2.50
2019-06-27T07:43:55.458Z,2.57
2019-06-27T07:46:26.194Z,2.20
2019-06-27T07:48:56.708Z,2.15
2019-06-27T07:51:27.505Z,2.20
2019-06-27T07:53:58.129Z,2.25
2019-06-27T07:56:28.642Z,2.10
2019-06-27T07:58:59.205Z,2.20
2019-06-27T08:01:35.385Z,1.90
2019-06-27T08:04:02.088Z,2.40
2019-06-27T08:06:32.603Z,1.70
2019-06-27T08:09:03.139Z,2.00
2019-06-27T08:11:33.661Z,1.67
2019-06-27T08:14:04.203Z,1.60
2019-06-27T08:16:34.738Z,1.40
2019-06-27T08:19:05.292Z,1.40
2019-06-27T08:21:35.795Z,1.20
2019-06-27T08:24:06.646Z,1.45
2019-06-27T08:26:37.055Z,1.30
2019-06-27T08:29:07.581Z,1.80
2019-06-27T08:31:51.009Z,1.50
2019-06-27T08:34:10.357Z,1.30
2019-06-27T08:36:40.973Z,1.32
2019-06-27T08:39:11.523Z,1.30
2019-06-27T08:41:42.015Z,1.52
2019-06-27T08:44:12.517Z,1.57
2019-06-27T08:46:43.127Z,1.15
2019-06-27T08:49:13.663Z,2.10
2019-06-27T08:51:44.191Z,1.90
2019-06-27T08:54:14.734Z,1.40
2019-06-27T08:56:45.342Z,1.55
2019-06-27T08:59:15.913Z,1.65
2019-06-27T09:01:46.430Z,1.30
2019-06-27T09:04:17.063Z,1.70
2019-06-27T09:06:47.660Z,2.30
2019-06-27T09:09:18.494Z,1.82
2019-06-27T09:11:49.202Z,1.90
2019-06-27T09:14:19.910Z,1.50
2019-06-27T09:16:50.665Z,1.85
2019-06-27T09:19:21.520Z,1.40
2019-06-27T09:21:52.378Z,1.55
2019-06-27T09:24:23.748Z,1.40
2019-06-27T09:26:54.306Z,1.53
2019-06-27T09:29:24.832Z,1.85
2019-06-27T09:31:55.488Z,1.90
2019-06-27T09:34:26.098Z,2.20
2019-06-27T09:36:56.698Z,1.45
2019-06-27T09:39:27.351Z,1.60
2019-06-27T09:41:57.898Z,1.60
2019-06-27T09:44:28.631Z,1.50
2019-06-27T09:46:59.334Z,0.80
2019-06-27T09:49:29.834Z,1.25
2019-06-27T09:52:00.378Z,1.35
2019-06-27T09:54:30.989Z,1.10
2019-06-27T09:57:01.596Z,1.20
2019-06-27T09:59:32.175Z,1.10
2019-06-27T10:02:02.749Z,1.12
2019-06-27T10:04:33.301Z,1.00
2019-06-27T10:07:04.031Z,1.00
2019-06-27T10:09:34.684Z,1.10
2019-06-27T10:12:05.282Z,1.10
2019-06-27T10:14:35.881Z,1.00
2019-06-27T10:17:06.451Z,0.80
2019-06-27T10:19:37.311Z,1.67
2019-06-27T10:22:07.906Z,1.10
2019-06-27T10:24:38.511Z,0.80
2019-06-27T10:27:09.128Z,0.80
2019-06-27T10:29:39.707Z,0.90
2019-06-27T10:32:10.318Z,0.90
2019-06-27T10:34:40.838Z,1.40
2019-06-27T10:37:11.431Z,1.10
2019-06-27T10:39:42.525Z,1.30
2019-06-27T10:42:13.233Z,1.00
2019-06-27T10:44:43.829Z,1.15
2019-06-27T10:47:14.434Z,1.10
2019-06-27T10:49:45.035Z,1.40
2019-06-27T10:52:15.608Z,1.10
2019-06-27T10:54:46.354Z,1.22
2019-06-27T10:57:19.052Z,0.80
2019-06-27T10:59:49.357Z,1.57
2019-06-27T11:02:19.976Z,1.20
2019-06-27T11:04:50.557Z,1.20
2019-06-27T11:07:21.164Z,0.90
2019-06-27T11:09:51.792Z,1.40
2019-06-27T11:12:22.788Z,1.30
2019-06-27T11:14:59.025Z,1.60
2019-06-27T11:17:25.806Z,1.25
2019-06-27T11:19:56.370Z,1.30
2019-06-27T11:22:26.977Z,1.40
2019-06-27T11:24:57.706Z,1.70
2019-06-27T11:27:28.240Z,1.20
2019-06-27T11:29:58.744Z,1.10
2019-06-27T11:32:29.273Z,1.40
2019-06-27T11:34:59.835Z,1.77
2019-06-27T11:37:30.315Z,1.23
2019-06-27T11:40:00.857Z,1.02
2019-06-27T11:42:31.395Z,0.80
2019-06-27T11:45:01.963Z,0.90
2019-06-27T11:47:34.575Z,1.20
2019-06-27T11:50:04.804Z,0.80
2019-06-27T11:52:35.279Z,0.80
2019-06-27T11:55:05.880Z,1.00
2019-06-27T11:57:36.461Z,0.85
2019-06-27T12:00:07.440Z,0.90
2019-06-27T12:02:37.971Z,1.00
2019-06-27T12:05:08.691Z,0.80
2019-06-27T12:07:39.259Z,1.07
2019-06-27T12:10:10.201Z,1.00
2019-06-27T12:12:40.844Z,1.10
2019-06-27T12:15:12.051Z,0.80
2019-06-27T12:17:42.581Z,1.00
2019-06-27T12:20:13.836Z,1.10
2019-06-27T12:22:44.399Z,0.82
2019-06-27T12:25:15.211Z,0.80
2019-06-27T12:27:45.730Z,0.90
2019-06-27T12:30:16.481Z,1.20
2019-06-27T12:32:52.508Z,1.25
2019-06-27T12:35:19.775Z,1.10
2019-06-27T12:37:50.304Z,1.25
2019-06-27T12:40:21.090Z,1.10
2019-06-27T12:42:51.672Z,1.32
2019-06-27T12:45:22.397Z,1.20
2019-06-27T12:47:52.966Z,1.30
2019-06-27T12:50:23.476Z,1.40
2019-06-27T12:52:54.093Z,1.42
2019-06-27T12:55:24.610Z,1.20
2019-06-27T12:57:55.577Z,1.42
2019-06-27T13:00:26.164Z,1.35
2019-06-27T13:02:56.740Z,2.05
2019-06-27T13:05:27.242Z,1.65
2019-06-27T13:07:57.856Z,1.30
2019-06-27T13:10:38.116Z,1.50
2019-06-27T13:13:08.716Z,1.20
2019-06-27T13:15:39.212Z,1.30
2019-06-27T13:18:09.772Z,1.50
2019-06-27T13:20:56.677Z,1.60
2019-06-27T13:23:12.614Z,1.20
2019-06-27T13:25:43.160Z,1.70
2019-06-27T13:28:13.800Z,1.47
2019-06-27T13:30:44.298Z,1.10
2019-06-27T13:33:14.849Z,1.52
2019-06-27T13:35:48.983Z,1.67
2019-06-27T13:38:17.613Z,1.17
2019-06-27T13:40:48.082Z,1.80
2019-06-27T13:43:18.654Z,1.57
2019-06-27T13:45:49.250Z,1.67
2019-06-27T13:48:19.790Z,0.90
2019-06-27T13:50:50.306Z,1.10
2019-06-27T13:53:20.977Z,1.22
2019-06-27T13:55:51.537Z,1.47
2019-06-27T13:58:22.123Z,1.40
2019-06-27T14:00:52.669Z,1.32
2019-06-27T14:03:23.226Z,1.25
2019-06-27T14:05:53.862Z,1.62
2019-06-27T14:08:26.345Z,1.55
2019-06-27T14:10:56.595Z,1.50
2019-06-27T14:13:27.096Z,1.35
2019-06-27T14:15:57.657Z,1.30
2019-06-27T14:18:28.142Z,1.60
2019-06-27T14:20:58.681Z,1.30
2019-06-27T14:23:29.428Z,1.60
2019-06-27T14:26:00.016Z,1.70
2019-06-27T14:28:30.557Z,1.60
2019-06-27T14:31:01.145Z,1.67
2019-06-27T14:33:31.657Z,1.75
2019-06-27T14:36:02.302Z,2.08
2019-06-27T14:38:52.100Z,1.80
2019-06-27T14:41:22.754Z,1.85
2019-06-27T14:43:53.382Z,1.70
2019-06-27T14:46:23.940Z,2.12
2019-06-27T14:48:56.792Z,2.10
2019-06-27T14:51:26.842Z,1.65
2019-06-27T14:53:57.349Z,1.80
2019-06-27T14:56:28.376Z,1.80
2019-06-27T14:58:59.019Z,1.60
2019-06-27T15:01:29.567Z,1.65
2019-06-27T15:04:00.271Z,2.20
2019-06-27T15:06:31.748Z,1.80
2019-06-27T15:09:02.799Z,1.90
2019-06-27T15:11:33.531Z,1.60
2019-06-27T15:14:04.175Z,1.72
2019-06-27T15:16:35.700Z,2.20
2019-06-27T15:19:06.250Z,1.70
2019-06-27T15:21:36.903Z,1.93
2019-06-27T15:24:07.474Z,2.10
2019-06-27T15:26:38.087Z,1.98
2019-06-27T15:29:08.691Z,2.20
2019-06-27T15:31:39.245Z,2.20
2019-06-27T15:34:09.892Z,2.20
2019-06-27T15:36:40.466Z,2.60
2019-06-27T15:39:12.133Z,1.90
2019-06-27T15:41:42.724Z,2.52
2019-06-27T15:44:20.332Z,2.20
2019-06-27T15:46:49.183Z,2.30
2019-06-27T15:49:19.798Z,1.90
2019-06-27T15:51:50.366Z,1.95
2019-06-27T15:54:20.899Z,2.33
2019-06-27T15:56:51.558Z,2.40
2019-06-27T15:59:22.110Z,2.00
2019-06-27T16:01:52.676Z,2.15
2019-06-27T16:04:32.634Z,2.33
2019-06-27T16:06:55.488Z,2.50
2019-06-27T16:09:26.096Z,1.98
2019-06-27T16:11:56.672Z,1.75
2019-06-27T16:14:27.302Z,2.17
2019-06-27T16:16:57.793Z,1.83
2019-06-27T16:19:28.401Z,2.05
2019-06-27T16:21:58.915Z,2.30
2019-06-27T16:24:29.601Z,1.75
2019-06-27T16:27:00.223Z,1.90
2019-06-27T16:29:30.776Z,2.30
2019-06-27T16:32:01.466Z,2.20
2019-06-27T16:34:32.079Z,2.30
2019-06-27T16:37:02.563Z,2.50
2019-06-27T16:39:33.110Z,2.10
2019-06-27T16:42:03.712Z,2.17
2019-06-27T16:44:34.195Z,2.50
2019-06-27T16:47:04.684Z,2.03
2019-06-27T16:49:35.259Z,3.07
2019-06-27T16:52:10.739Z,2.07
2019-06-27T16:54:41.421Z,1.50
2019-06-27T16:57:12.047Z,1.40
2019-06-27T16:59:42.638Z,2.47
2019-06-27T17:02:13.196Z,1.97
2019-06-27T17:04:43.754Z,1.87
2019-06-27T17:07:14.343Z,1.50
2019-06-27T17:09:44.989Z,3.10
2019-06-27T17:12:15.510Z,1.90
2019-06-27T17:14:46.008Z,1.97
2019-06-27T17:17:16.691Z,1.77
2019-06-27T17:19:47.306Z,2.03
2019-06-27T17:22:17.838Z,2.80
2019-06-27T17:24:48.470Z,2.10
2019-06-27T17:27:19.083Z,2.97
2019-06-27T17:29:49.622Z,3.07
2019-06-27T17:32:20.158Z,2.60
2019-06-27T17:34:50.728Z,2.10
2019-06-27T17:37:21.128Z,2.23
2019-06-27T17:39:51.727Z,3.10
2019-06-27T17:42:22.230Z,2.43
2019-06-27T17:44:52.797Z,2.10
2019-06-27T17:47:23.332Z,2.60
2019-06-27T17:49:53.830Z,2.27
2019-06-27T17:52:24.707Z,2.97
2019-06-27T17:54:55.306Z,3.27
2019-06-27T17:57:25.827Z,3.27
2019-06-27T17:59:56.360Z,2.20
2019-06-27T18:02:26.901Z,2.50
2019-06-27T18:04:57.554Z,3.00
2019-06-27T18:07:28.141Z,2.13
2019-06-27T18:09:58.764Z,3.20
2019-06-27T18:12:29.182Z,2.77
2019-06-27T18:14:59.691Z,3.37
2019-06-27T18:17:33.828Z,3.13
2019-06-27T18:20:02.542Z,4.50
2019-06-27T18:22:33.107Z,2.70
2019-06-27T18:25:03.659Z,2.50
2019-06-27T18:27:34.081Z,3.10
2019-06-27T18:30:04.698Z,3.00
2019-06-27T18:32:35.255Z,2.80
2019-06-27T18:35:06.656Z,2.60
2019-06-27T18:37:37.157Z,2.70
2019-06-27T18:40:08.253Z,2.90
2019-06-27T18:42:38.723Z,2.93
2019-06-27T18:45:10.528Z,2.60
2019-06-27T18:47:41.189Z,3.50
2019-06-27T18:50:12.044Z,2.70
2019-06-27T18:52:42.546Z,2.70
2019-06-27T18:55:13.147Z,3.20
2019-06-27T18:57:43.705Z,2.63
2019-06-27T19:00:15.099Z,2.90
2019-06-27T19:02:45.714Z,3.07
2019-06-27T19:05:17.187Z,3.30
2019-06-27T19:07:47.782Z,2.37
2019-06-27T19:10:18.696Z,3.17
2019-06-27T19:12:49.330Z,2.73
2019-06-27T19:15:19.857Z,3.17
2019-06-27T19:17:50.620Z,2.90
2019-06-27T19:20:36.336Z,3.20
2019-06-27T19:23:28.754Z,2.40
2019-06-27T19:26:00.765Z,2.67
2019-06-27T19:28:31.344Z,4.00
2019-06-27T19:31:02.118Z,3.67
2019-06-27T19:33:32.711Z,3.35
2019-06-27T19:36:03.603Z,2.90
2019-06-27T19:38:34.232Z,2.90
2019-06-27T19:41:05.662Z,2.60
2019-06-27T19:43:36.257Z,2.90
2019-06-27T19:46:08.029Z,2.80
2019-06-27T19:48:38.643Z,3.20
2019-06-27T19:51:09.357Z,3.55
2019-06-27T19:53:40.135Z,3.20
2019-06-27T19:56:10.784Z,2.85
2019-06-27T19:58:41.522Z,2.90
2019-06-27T20:01:12.230Z,2.70
2019-06-27T20:03:42.844Z,2.70
2019-06-27T20:06:13.427Z,2.98
2019-06-27T20:08:43.956Z,3.10
2019-06-27T20:11:14.493Z,4.07
2019-06-27T20:13:45.094Z,2.70
2019-06-27T20:16:15.755Z,2.70
2019-06-27T20:18:46.272Z,3.40
2019-06-27T20:21:16.838Z,3.08
2019-06-27T20:23:47.444Z,2.58
2019-06-27T20:26:18.032Z,2.60
2019-06-27T20:28:48.736Z,2.05
2019-06-27T20:31:20.863Z,2.20
2019-06-27T20:33:51.420Z,2.02
2019-06-27T20:36:22.004Z,2.30
2019-06-27T20:38:52.588Z,2.10
2019-06-27T20:41:23.131Z,2.50
2019-06-27T20:43:53.707Z,2.50
2019-06-27T20:46:24.273Z,2.37
2019-06-27T20:48:54.858Z,2.37
2019-06-27T20:51:25.397Z,2.22
2019-06-27T20:53:55.933Z,2.40
2019-06-27T20:56:26.468Z,2.35
2019-06-27T20:58:57.033Z,2.27
2019-06-27T21:01:31.176Z,2.10
2019-06-27T21:03:59.950Z,2.20
2019-06-27T21:06:30.444Z,2.22
2019-06-27T21:09:00.959Z,1.80
2019-06-27T21:11:31.591Z,2.60
2019-06-27T21:14:02.161Z,2.10
2019-06-27T21:16:32.677Z,2.60
2019-06-27T21:19:03.197Z,2.87
2019-06-27T21:21:33.794Z,2.17
2019-06-27T21:24:04.377Z,2.00
2019-06-27T21:26:34.916Z,2.02
2019-06-27T21:29:05.455Z,3.08
2019-06-27T21:31:36.068Z,2.55
2019-06-27T21:34:06.593Z,2.20
2019-06-27T21:36:37.296Z,2.52
2019-06-27T21:39:08.250Z,2.30
2019-06-27T21:41:38.985Z,2.37
2019-06-27T21:44:09.557Z,2.50
2019-06-27T21:46:40.093Z,2.45
2019-06-27T21:49:11.573Z,2.35
2019-06-27T21:51:42.205Z,2.45
2019-06-27T21:54:12.804Z,2.50
2019-06-27T21:56:43.299Z,2.30
2019-06-27T21:59:13.799Z,2.95
2019-06-27T22:01:44.423Z,2.30
2019-06-27T22:04:15.000Z,2.98
2019-06-27T22:06:45.525Z,2.47
2019-06-27T22:09:24.520Z,2.12
2019-06-27T22:11:48.346Z,2.47
2019-06-27T22:14:18.886Z,2.77
2019-06-27T22:16:49.413Z,2.20
2019-06-27T22:19:19.931Z,2.00
2019-06-27T22:21:50.452Z,2.72
2019-06-27T22:24:21.003Z,2.77
2019-06-27T22:26:51.514Z,2.08
2019-06-27T22:29:21.973Z,2.70
2019-06-27T22:31:52.550Z,2.37
2019-06-27T22:34:23.021Z,2.33
2019-06-27T22:36:56.021Z,2.12
2019-06-27T22:39:43.844Z,2.50
2019-06-27T22:42:32.069Z,2.00
2019-06-27T22:45:20.708Z,2.05
2019-06-27T22:48:08.925Z,2.30
2019-06-27T22:51:11.473Z,2.30
2019-06-27T22:53:51.738Z,2.00
2019-06-27T22:56:22.324Z,2.70
2019-06-27T22:58:52.925Z,2.60
2019-06-27T23:01:23.476Z,2.53
2019-06-27T23:03:54.088Z,2.70
2019-06-27T23:06:24.827Z,2.15
2019-06-27T23:08:55.694Z,2.70
2019-06-27T23:11:26.513Z,2.60
2019-06-27T23:13:59.471Z,2.65
2019-06-27T23:16:29.968Z,2.45
2019-06-27T23:19:00.549Z,3.40
2019-06-27T23:21:31.060Z,2.30
2019-06-27T23:24:01.788Z,2.17
2019-06-27T23:26:32.437Z,2.22
2019-06-27T23:29:03.067Z,2.50
2019-06-27T23:31:33.596Z,3.00
2019-06-27T23:34:03.951Z,2.10
2019-06-27T23:36:34.411Z,2.40
2019-06-27T23:39:05.002Z,2.83
2019-06-27T23:41:35.652Z,2.20
2019-06-27T23:44:06.155Z,2.30
2019-06-27T23:46:43.582Z,2.43
2019-06-27T23:49:14.111Z,2.10
2019-06-27T23:51:44.845Z,2.30
2019-06-27T23:54:15.334Z,2.30
2019-06-27T23:56:45.817Z,2.80
2019-06-27T23:59:16.404Z,2.47
